Latest Weather Observations for Sunshine Coast Airport

IDQ60901

Issued at 8:11 pm EST Wednesday 17 July 2024 (issued every 10 minutes, with the page automatically refreshed every 10 minutes)

About weather observations | Map of Brisbane area stations | Latest observations for Brisbane area | Other Formats
Station Details ID: 040861 Name: SUNSHINE COAST AIRPORT Lat: -26.60 Lon: 153.09 Height: 3.42 m
Data from the previous 72 hours. | See also: Recent months at Sunshine Coast Airport
Date/Time
EST
Temp
°C
App
Temp
°C
Dew
Point
°C
Rel
Hum
%
Delta-T
°C
Wind Press
QNH
hPa
Press
MSL
hPa
Rain since
9am
mm
Dir  Spd
km/h
Gust
km/h
Spd
kts
Gust
kts
17/08:00pm 11.8 7.4 4.8 62 3.2 W 17 24 9 13 1014.2 1014.2 0.0
17/07:30pm 10.0 6.6 4.2 67 2.6 W 11 13 6 7 1013.7 1013.7 0.0
17/07:00pm 11.5 7.4 4.3 61 3.2 W 15 20 8 11 1013.4 1013.4 0.0
17/06:30pm 11.9 7.4 4.4 60 3.4 W 17 24 9 13 1013.0 1013.0 0.0
17/06:00pm 12.9 7.5 4.3 56 3.9 W 22 32 12 17 1012.5 1012.5 0.0
17/05:30pm 12.9 8.1 4.6 57 3.8 W 19 24 10 13 1012.2 1012.2 0.0
17/05:00pm 13.8 8.3 4.1 52 4.4 WSW 22 39 12 21 1011.6 1011.6 0.0
17/04:30pm 15.4 9.2 4.2 47 5.2 WSW 26 33 14 18 1011.3 1011.3 0.0
17/04:00pm 16.2 10.4 4.3 45 5.6 W 24 33 13 18 1010.7 1010.7 0.0
17/03:30pm 16.7 10.5 4.1 43 5.9 W 26 37 14 20 1010.4 1010.4 0.0
17/03:00pm 16.9 10.6 3.6 41 6.2 W 26 35 14 19 1010.3 1010.3 0.0
17/02:30pm 17.2 10.5 3.8 41 6.2 W 28 39 15 21 1010.1 1010.1 0.0
17/02:00pm 16.9 10.5 3.2 40 6.3 W 26 37 14 20 1010.2 1010.2 0.0
17/01:30pm 16.8 10.5 3.8 42 6.0 WNW 26 33 14 18 1010.2 1010.2 0.0
17/01:00pm 16.9 11.1 4.3 43 5.9 W 24 35 13 19 1010.7 1010.7 0.0
17/12:30pm 16.3 10.0 3.7 43 5.8 W 26 35 14 19 1011.2 1011.2 0.0
17/12:00pm 16.7 11.2 4.1 43 5.9 WNW 22 32 12 17 1011.7 1011.7 0.0
17/11:30am 16.4 11.3 4.1 44 5.7 W 20 37 11 20 1012.3 1012.3 0.0
17/11:00am 15.6 9.3 3.7 45 5.5 WNW 26 39 14 21 1012.9 1012.9 0.0
17/10:30am 15.2 9.7 4.0 47 5.2 W 22 32 12 17 1013.5 1013.5 0.0
17/10:00am 14.3 9.1 3.7 49 4.8 W 20 30 11 16 1013.9 1013.9 0.0
17/09:30am 13.6 10.5 5.5 58 3.8 WNW 11 20 6 11 1014.2 1014.2 0.0
17/09:00am 12.3 9.0 4.8 60 3.4 NW 11 15 6 8 1014.5 1014.5 0.0
17/08:30am 11.3 8.3 5.8 69 2.6 NW 11 15 6 8 1014.4 1014.4 0.0
17/08:00am 9.5 6.9 6.0 79 1.6 NW 9 13 5 7 1014.3 1014.3 0.0
17/07:30am 6.5 3.3 5.0 90 0.7 NW 11 13 6 7 1014.1 1014.1 0.0
17/07:00am 4.1 0.5 2.8 91 0.5 NW 11 13 6 7 1013.9 1013.9 0.0
17/06:30am 3.4 -0.3 2.2 92 0.5 NW 11 13 6 7 1013.6 1013.6 0.0
17/06:00am 3.3 -0.1 2.1 92 0.5 W 9 9 5 5 1013.2 1013.2 0.0
17/05:30am 3.1 -0.7 1.8 91 0.5 NW 11 15 6 8 1012.9 1012.9 0.0
17/05:00am 4.0 0.7 2.5 90 0.6 WNW 9 11 5 6 1012.6 1012.6 0.0
17/04:30am 3.5 -0.2 2.2 91 0.5 WNW 11 15 6 8 1012.5 1012.5 0.0
17/04:00am 4.0 0.0 2.7 91 0.5 NW 13 15 7 8 1012.3 1012.3 0.0
17/03:30am 4.1 0.0 2.5 89 0.6 NW 13 15 7 8 1012.3 1012.3 0.0
17/03:00am 4.4 0.4 2.8 89 0.6 NW 13 17 7 9 1012.1 1012.1 0.0
17/02:30am 4.4 0.8 2.9 90 0.6 NNW 11 15 6 8 1012.1 1012.1 0.0
17/02:00am 4.3 0.3 2.7 89 0.6 NW 13 15 7 8 1012.1 1012.1 0.0
17/01:30am 5.0 1.3 2.5 84 1.0 WNW 11 17 6 9 1012.4 1012.4 0.0
17/01:00am 5.2 2.0 3.2 87 0.8 WNW 9 13 5 7 1012.4 1012.4 0.0
17/12:30am 5.7 2.1 3.0 83 1.1 NW 11 15 6 8 1012.5 1012.5 0.0
17/12:00am 6.2 3.0 3.0 80 1.3 WNW 9 13 5 7 1012.8 1012.8 0.0
 
Date/Time
EST
Temp
°C
App
Temp
°C
Dew
Point
°C
Rel
Hum
%
Delta-T
°C
Wind Press
QNH
hPa
Press
MSL
hPa
Rain since
9am
mm
Dir  Spd
km/h
Gust
km/h
Spd
kts
Gust
kts
16/11:30pm 7.0 3.5 3.3 77 1.6 NW 11 13 6 7 1013.0 1013.0 0.0
16/11:00pm 7.5 4.1 3.9 78 1.5 NW 11 17 6 9 1013.3 1013.3 0.0
16/10:30pm 6.9 2.7 4.0 82 1.2 NW 15 17 8 9 1013.1 1013.1 0.0
16/10:00pm 7.2 3.0 4.0 80 1.4 NW 15 19 8 10 1012.9 1012.9 0.0
16/09:30pm 6.9 3.4 3.7 80 1.4 NW 11 13 6 7 1012.6 1012.6 0.0
16/09:00pm 7.3 4.2 3.4 76 1.7 NNW 9 11 5 6 1012.5 1012.5 0.0
16/08:30pm 9.5 6.6 2.8 63 2.9 N 7 9 4 5 1012.3 1012.3 0.0
16/08:00pm 8.8 6.1 3.6 70 2.2 NNW 7 11 4 6 1012.0 1012.0 0.0
16/07:30pm 8.1 4.6 3.4 72 2.0 NW 11 13 6 7 1011.6 1011.6 0.0
16/07:00pm 11.9 8.9 2.1 51 4.2 WNW 7 13 4 7 1011.2 1011.2 0.0
16/06:30pm 13.3 9.5 1.6 45 5.0 W 11 15 6 8 1010.8 1010.8 0.0
16/06:00pm 13.6 9.3 1.3 43 5.3 W 13 19 7 10 1010.4 1010.4 0.0
16/05:30pm 14.7 10.9 1.6 41 5.7 WSW 11 17 6 9 1010.1 1010.1 0.0
16/05:00pm 16.2 10.6 1.5 37 6.5 W 20 32 11 17 1009.5 1009.5 0.0
16/04:30pm 17.4 9.9 1.4 34 7.1 W 30 44 16 24 1009.3 1009.3 0.0
16/04:00pm 18.1 10.2 1.2 32 7.5 W 32 41 17 22 1009.0 1009.0 0.0
16/03:30pm 18.6 10.5 0.7 30 7.9 W 33 46 18 25 1008.7 1008.7 0.0
16/03:00pm 19.3 12.7 1.8 31 8.0 WSW 26 35 14 19 1008.7 1008.7 0.0
16/02:30pm 19.5 13.0 2.4 32 7.9 W 26 35 14 19 1008.5 1008.5 0.0
16/02:00pm 19.5 13.7 2.4 32 7.9 W 22 33 12 18 1008.5 1008.5 0.0
16/01:30pm 19.2 12.3 2.6 33 7.7 W 28 43 15 23 1008.7 1008.7 0.0
16/01:00pm 18.8 11.8 4.2 38 7.0 W 30 43 16 23 1009.1 1009.1 0.0
16/12:30pm 18.4 11.3 3.5 37 7.0 WSW 30 41 16 22 1009.6 1009.6 0.0
16/12:00pm 18.9 12.2 3.5 36 7.2 W 28 43 15 23 1010.1 1010.1 0.0
16/11:30am 18.4 12.9 4.2 39 6.7 WSW 22 33 12 18 1010.8 1010.8 0.0
16/11:00am 17.1 13.5 5.1 45 5.7 WSW 13 20 7 11 1011.5 1011.5 0.0
16/10:30am 16.2 12.6 5.2 48 5.2 W 13 20 7 11 1012.1 1012.1 0.0
16/10:00am 15.8 12.7 7.3 57 4.2 NNW 13 20 7 11 1012.4 1012.4 0.0
16/09:30am 14.1 10.9 6.9 62 3.5 NNW 13 19 7 10 1012.8 1012.8 0.0
16/09:00am 13.3 10.5 8.4 72 2.4 NNW 13 19 7 10 1012.9 1012.9 -
16/08:30am 11.0 8.6 8.6 85 1.2 NW 11 13 6 7 1012.9 1012.9 -
16/08:00am 8.4 5.2 6.9 90 0.7 NW 13 17 7 9 1012.8 1012.8 -
16/07:30am 6.1 3.4 5.4 95 0.3 NW 9 13 5 7 1012.7 1012.7 -
16/07:00am 4.3 1.1 3.3 93 0.4 WNW 9 11 5 6 1012.4 1012.4 -
16/06:30am 4.5 2.0 3.6 94 0.4 W 6 7 3 4 1012.3 1012.3 -
16/06:00am 4.6 2.1 3.7 94 0.4 W 6 9 3 5 1012.1 1012.1 -
16/05:30am 4.1 1.3 3.2 94 0.4 WNW 7 9 4 5 1011.9 1011.9 -
16/05:00am 3.7 0.8 2.8 94 0.4 WNW 7 9 4 5 1011.7 1011.7 -
16/04:30am 3.9 0.3 3.0 94 0.4 NW 11 13 6 7 1011.5 1011.5 -
16/04:00am 4.0 0.4 3.0 93 0.4 WNW 11 13 6 7 1011.5 1011.5 -
16/03:30am 4.2 0.6 3.0 92 0.5 WNW 11 13 6 7 1011.6 1011.6 -
16/03:00am 4.4 1.6 3.2 92 0.5 WNW 7 9 4 5 1011.6 1011.6 0.0
16/02:30am 5.0 1.9 3.7 91 0.5 WNW 9 9 5 5 1011.6 1011.6 -
16/02:00am 5.0 1.9 3.5 90 0.6 WNW 9 9 5 5 1011.8 1011.8 -
16/01:30am 5.5 2.4 3.8 89 0.7 WNW 9 11 5 6 1011.8 1011.8 -
16/01:00am 5.8 2.8 4.3 90 0.6 W 9 9 5 5 1011.9 1011.9 -
16/12:30am 5.2 1.8 3.9 91 0.5 WNW 11 13 6 7 1012.1 1012.1 -
16/12:00am 6.0 3.5 4.6 91 0.6 W 7 9 4 5 1012.1 1012.1 -
 
Date/Time
EST
Temp
°C
App
Temp
°C
Dew
Point
°C
Rel
Hum
%
Delta-T
°C
Wind Press
QNH
hPa
Press
MSL
hPa
Rain since
9am
mm
Dir  Spd
km/h
Gust
km/h
Spd
kts
Gust
kts
15/11:30pm 6.2 5.0 4.7 90 0.6 CALM 0 0 0 0 1012.0 1012.0 -
15/11:00pm 6.5 4.1 5.1 91 0.6 WNW 7 9 4 5 1012.3 1012.3 -
15/10:30pm 6.6 3.7 4.9 89 0.7 WNW 9 9 5 5 1012.5 1012.5 -
15/10:00pm 6.8 4.0 5.0 88 0.8 NW 9 11 5 6 1012.5 1012.5 -
15/09:30pm 7.1 4.8 5.6 90 0.7 WNW 7 9 4 5 1012.4 1012.4 -
15/09:00pm 7.2 4.0 5.0 86 1.0 NW 11 11 6 6 1012.3 1012.3 0.0
15/08:30pm 7.0 3.4 5.2 88 0.8 NW 13 15 7 8 1012.3 1012.3 -
15/08:00pm 7.5 5.1 5.1 85 1.1 W 7 7 4 4 1012.1 1012.1 -
15/07:30pm 9.1 6.3 5.3 77 1.7 WSW 9 11 5 6 1011.8 1011.8 -
15/07:00pm 9.0 5.8 5.2 77 1.7 NW 11 13 6 7 1011.4 1011.4 -
15/06:30pm 10.2 7.0 5.0 70 2.3 NW 11 13 6 7 1011.2 1011.2 -
15/06:00pm 12.5 9.1 4.2 57 3.8 W 11 13 6 7 1010.9 1010.9 -
15/05:30pm 13.5 9.6 3.6 51 4.5 W 13 13 7 7 1010.6 1010.6 -
15/05:00pm 15.5 10.4 3.3 44 5.6 WSW 19 24 10 13 1010.2 1010.2 -
15/04:30pm 16.8 11.8 3.5 41 6.1 WSW 19 26 10 14 1009.9 1009.9 -
15/04:00pm 17.5 10.4 3.8 40 6.4 WSW 30 39 16 21 1009.4 1009.4 -
15/03:30pm 18.1 12.2 3.9 39 6.7 W 24 32 13 17 1009.4 1009.4 -
15/03:00pm 18.7 12.8 3.7 37 7.1 WSW 24 33 13 18 1009.2 1009.2 -
15/02:30pm 18.8 13.8 4.6 39 6.8 WSW 20 28 11 15 1009.1 1009.1 -
15/02:00pm 18.7 14.0 5.2 41 6.6 W 19 24 10 13 1009.4 1009.4 -
15/01:30pm 18.3 12.9 4.5 40 6.6 WSW 22 30 12 16 1009.6 1009.6 -
15/01:00pm 18.1 13.1 4.7 41 6.4 WSW 20 30 11 16 1010.0 1010.0 -
15/12:30pm 17.7 12.3 4.3 41 6.3 SW 22 30 12 16 1010.3 1010.3 -
15/12:00pm 17.1 11.2 3.8 41 6.2 SW 24 33 13 18 1011.0 1011.0 -
15/10:00am 15.5 11.5 4.8 49 5.0 WSW 15 28 8 15 1012.5 1012.5 0.0
15/09:30am 14.1 11.8 5.5 56 4.1 WSW 7 19 4 10 1012.7 1012.7 0.0
15/09:00am 11.9 9.4 6.4 69 2.6 NW 9 13 5 7 1012.8 1012.8 0.0
15/08:30am 11.4 8.9 6.7 73 2.2 NW 9 13 5 7 1012.7 1012.7 0.0
15/08:00am 10.2 8.2 6.9 80 1.6 NW 7 9 4 5 1012.7 1012.7 0.0
15/07:30am 7.9 5.9 6.2 89 0.8 NNW 6 9 3 5 1012.5 1012.5 0.0
15/07:00am 5.6 2.9 3.9 89 0.7 WNW 7 9 4 5 1012.1 1012.1 0.0
15/06:30am 5.6 3.1 3.9 89 0.7 NW 6 9 3 5 1011.9 1011.9 0.0
15/06:00am 5.2 2.0 3.2 87 0.8 NW 9 11 5 6 1011.5 1011.5 0.0
15/05:30am 6.8 4.1 2.9 76 1.6 NW 6 9 3 5 1011.5 1011.5 0.0
15/05:00am 7.4 4.6 3.3 75 1.7 N 7 7 4 4 1011.4 1011.4 0.0
15/04:30am 7.8 5.0 3.1 72 2.0 NNW 7 9 4 5 1011.2 1011.2 0.0
15/04:00am 8.0 6.2 3.7 74 1.8 SW 2 6 1 3 1011.2 1011.2 0.0
15/03:30am 8.1 6.4 3.8 74 1.9 W 2 6 1 3 1011.2 1011.2 0.0
15/03:00am 8.2 4.3 3.5 72 2.0 W 13 13 7 7 1011.6 1011.6 0.0
15/02:30am 8.5 5.8 3.6 71 2.1 WSW 7 9 4 5 1011.5 1011.5 0.0
15/02:00am 9.1 5.2 3.3 67 2.5 W 13 15 7 8 1011.6 1011.6 0.0
15/01:30am 9.9 6.0 3.6 65 2.7 W 13 17 7 9 1011.8 1011.8 0.0
15/01:00am 10.1 7.6 4.0 66 2.7 NW 6 9 3 5 1012.1 1012.1 0.0
15/12:30am 11.4 7.9 3.7 59 3.4 WSW 11 17 6 9 1012.1 1012.1 0.0
15/12:00am 12.0 7.9 4.2 59 3.5 WSW 15 22 8 12 1012.2 1012.2 0.0
 
Date/Time
EST
Temp
°C
App
Temp
°C
Dew
Point
°C
Rel
Hum
%
Delta-T
°C
Wind Press
QNH
hPa
Press
MSL
hPa
Rain since
9am
mm
Dir  Spd
km/h
Gust
km/h
Spd
kts
Gust
kts
14/11:30pm 11.8 7.7 4.5 61 3.3 WSW 15 20 8 11 1012.4 1012.4 0.0
14/11:00pm 11.8 8.2 5.0 63 3.1 WSW 13 17 7 9 1012.6 1012.6 0.0
14/10:30pm 12.4 8.5 5.3 62 3.3 WSW 15 19 8 10 1012.9 1012.9 0.0
14/10:00pm 12.9 8.7 5.8 62 3.3 WSW 17 30 9 16 1013.0 1013.0 0.0
14/09:30pm 10.8 10.2 7.3 79 1.7 CALM 0 0 0 0 1013.0 1013.0 0.0
14/09:00pm 10.9 8.6 7.4 79 1.7 WNW 9 11 5 6 1012.9 1012.9 0.0
14/08:30pm 11.2 9.3 7.5 78 1.8 WNW 7 11 4 6 1012.6 1012.6 0.0

Latest Capital City Observations: Canberra | Sydney | Melbourne | Brisbane | Adelaide | Perth | Hobart | Darwin

Other formats

Comma delimited format used in spreadsheet applications
http://www.bom.gov.au/fwo/IDQ60901/IDQ60901.94569.axf

JavaScript Object Notation format (JSON) in row-major order
http://www.bom.gov.au/fwo/IDQ60901/IDQ60901.94569.json

Data quality

Most of these data are generated automatically and are frequently updated. Quality checks on data are not normally performed. It is possible for incorrect values to appear. Refer to information at About Latest Weather Observations and please check the disclaimer before using these data.